createdAt,value
2019-03-25T00:01:34.636Z,6.20
2019-03-25T00:04:02.836Z,6.20
2019-03-25T00:06:30.832Z,6.20
2019-03-25T00:09:05.317Z,6.20
2019-03-25T00:11:28.599Z,6.20
2019-03-25T00:13:56.675Z,6.20
2019-03-25T00:16:24.647Z,6.20
2019-03-25T00:18:52.615Z,6.20
2019-03-25T00:21:20.694Z,6.20
2019-03-25T00:23:48.784Z,6.20
2019-03-25T00:26:16.772Z,6.20
2019-03-25T00:28:44.752Z,6.20
2019-03-25T00:31:12.752Z,6.20
2019-03-25T00:33:40.742Z,6.20
2019-03-25T00:36:08.725Z,6.20
2019-03-25T00:38:36.712Z,6.20
2019-03-25T00:41:04.835Z,6.20
2019-03-25T00:43:32.816Z,6.10
2019-03-25T00:46:00.784Z,6.10
2019-03-25T00:48:28.776Z,6.10
2019-03-25T00:50:56.769Z,6.10
2019-03-25T00:53:24.833Z,6.10
2019-03-25T00:55:52.829Z,6.00
2019-03-25T00:58:20.801Z,6.00
2019-03-25T01:00:48.885Z,6.00
2019-03-25T01:03:16.909Z,6.00
2019-03-25T01:05:44.885Z,6.00
2019-03-25T01:08:12.950Z,6.00
2019-03-25T01:10:40.977Z,6.00
2019-03-25T01:13:08.947Z,6.00
2019-03-25T01:15:37.024Z,6.10
2019-03-25T01:18:16.133Z,6.10
2019-03-25T01:20:34.996Z,6.00
2019-03-25T01:23:02.961Z,6.00
2019-03-25T01:25:30.948Z,6.00
2019-03-25T01:27:58.919Z,6.00
2019-03-25T01:30:26.976Z,6.00
2019-03-25T01:32:54.979Z,6.00
2019-03-25T01:35:22.955Z,6.10
2019-03-25T01:37:50.940Z,6.00
2019-03-25T01:40:19.089Z,6.00
2019-03-25T01:42:47.084Z,6.00
2019-03-25T01:45:15.080Z,6.00
2019-03-25T01:47:43.146Z,6.00
2019-03-25T01:50:11.309Z,6.00
2019-03-25T01:52:39.296Z,6.00
2019-03-25T01:55:13.511Z,6.00
2019-03-25T01:57:37.294Z,6.00
2019-03-25T02:00:06.718Z,5.90
2019-03-25T02:02:34.820Z,5.90
2019-03-25T02:05:02.884Z,5.90
2019-03-25T02:07:30.875Z,5.90
2019-03-25T02:09:58.985Z,6.00
2019-03-25T02:12:27.065Z,6.00
2019-03-25T02:14:54.924Z,5.90
2019-03-25T02:17:22.937Z,5.90
2019-03-25T02:19:50.923Z,5.90
2019-03-25T02:22:19.429Z,5.90
2019-03-25T02:24:47.588Z,5.90
2019-03-25T02:27:15.441Z,5.80
2019-03-25T02:29:43.520Z,5.90
2019-03-25T02:32:11.613Z,5.90
2019-03-25T02:34:39.594Z,5.90
2019-03-25T02:37:07.581Z,5.80
2019-03-25T02:39:35.576Z,5.90
2019-03-25T02:42:03.657Z,5.90
2019-03-25T02:44:31.730Z,5.90
2019-03-25T02:46:59.830Z,5.90
2019-03-25T02:49:27.802Z,5.90
2019-03-25T02:51:55.795Z,5.90
2019-03-25T02:54:23.806Z,5.80
2019-03-25T02:56:51.778Z,5.80
2019-03-25T02:59:19.898Z,5.80
2019-03-25T03:01:47.971Z,5.80
2019-03-25T03:04:15.959Z,5.80
2019-03-25T03:06:43.949Z,5.80
2019-03-25T03:09:12.045Z,5.80
2019-03-25T03:11:40.022Z,5.80
2019-03-25T03:14:08.125Z,5.80
2019-03-25T03:16:36.192Z,5.80
2019-03-25T03:19:04.292Z,5.80
2019-03-25T03:21:32.270Z,5.80
2019-03-25T03:24:00.230Z,5.90
2019-03-25T03:26:28.198Z,5.90
2019-03-25T03:28:56.219Z,5.90
2019-03-25T03:31:24.181Z,6.10
2019-03-25T03:33:52.265Z,6.20
2019-03-25T03:36:20.312Z,6.20
2019-03-25T03:38:48.498Z,6.30
2019-03-25T03:41:16.590Z,6.40
2019-03-25T03:43:44.668Z,6.40
2019-03-25T03:46:12.714Z,6.50
2019-03-25T03:48:40.797Z,6.50
2019-03-25T03:51:08.683Z,6.60
2019-03-25T03:53:36.658Z,6.60
2019-03-25T03:56:12.951Z,6.60
2019-03-25T03:58:34.623Z,6.60
2019-03-25T04:01:02.712Z,6.60
2019-03-25T04:03:30.776Z,6.60
2019-03-25T04:05:58.883Z,6.70
2019-03-25T04:08:26.848Z,6.70
2019-03-25T04:10:54.819Z,6.70
2019-03-25T04:13:22.816Z,6.80
2019-03-25T04:15:50.801Z,6.80
2019-03-25T04:18:18.769Z,6.80
2019-03-25T04:20:46.756Z,6.80
2019-03-25T04:23:14.725Z,6.90
2019-03-25T04:25:42.819Z,6.90
2019-03-25T04:28:10.692Z,7.00
2019-03-25T04:30:38.658Z,7.00
2019-03-25T04:33:06.646Z,7.00
2019-03-25T04:35:34.620Z,7.00
2019-03-25T04:38:02.614Z,7.00
2019-03-25T04:40:30.741Z,7.00
2019-03-25T04:42:59.017Z,7.00
2019-03-25T04:45:26.988Z,7.00
2019-03-25T04:47:54.964Z,6.90
2019-03-25T04:50:23.036Z,6.90
2019-03-25T04:52:51.030Z,6.90
2019-03-25T04:55:19.616Z,6.90
2019-03-25T04:57:47.692Z,7.00
2019-03-25T05:00:21.583Z,7.10
2019-03-25T05:02:49.600Z,7.10
2019-03-25T05:05:17.632Z,7.10
2019-03-25T05:07:45.641Z,7.20
2019-03-25T05:10:13.768Z,7.20
2019-03-25T05:12:41.893Z,7.20
2019-03-25T05:15:09.966Z,7.30
2019-03-25T05:17:37.964Z,7.30
2019-03-25T05:20:06.045Z,7.30
2019-03-25T05:22:34.013Z,7.30
2019-03-25T05:25:01.997Z,7.20
2019-03-25T05:27:30.107Z,7.10
2019-03-25T05:29:58.100Z,6.90
2019-03-25T05:32:26.092Z,6.70
2019-03-25T05:34:54.202Z,6.60
2019-03-25T05:37:22.288Z,6.50
2019-03-25T05:39:50.320Z,6.50
2019-03-25T05:42:18.374Z,6.40
2019-03-25T05:44:46.361Z,6.40
2019-03-25T05:47:14.441Z,6.30
2019-03-25T05:49:42.565Z,6.30
2019-03-25T05:52:10.526Z,6.20
2019-03-25T05:54:38.507Z,6.20
2019-03-25T05:57:06.502Z,6.20
2019-03-25T05:59:34.485Z,6.10
2019-03-25T06:02:02.632Z,6.00
2019-03-25T06:04:30.621Z,6.00
2019-03-25T06:06:58.704Z,5.90
2019-03-25T06:09:26.709Z,5.90
2019-03-25T06:11:54.673Z,5.80
2019-03-25T06:14:22.785Z,5.90
2019-03-25T06:16:50.783Z,6.00
2019-03-25T06:19:18.808Z,5.90
2019-03-25T06:21:46.793Z,6.10
2019-03-25T06:24:14.924Z,6.10
2019-03-25T06:26:42.933Z,6.20
2019-03-25T06:29:10.916Z,6.30
2019-03-25T06:31:38.884Z,6.40
2019-03-25T06:34:06.976Z,6.40
2019-03-25T06:36:34.949Z,6.50
2019-03-25T06:39:04.345Z,6.50
2019-03-25T06:41:32.320Z,6.50
2019-03-25T06:44:00.410Z,6.50
2019-03-25T06:46:28.388Z,6.50
2019-03-25T06:48:56.480Z,6.60
2019-03-25T06:51:24.428Z,6.60
2019-03-25T06:53:52.376Z,6.70
2019-03-25T06:56:20.343Z,6.70
2019-03-25T06:58:48.322Z,6.70
2019-03-25T07:01:16.283Z,6.70
2019-03-25T07:03:44.354Z,6.80
2019-03-25T07:06:12.455Z,6.80
2019-03-25T07:08:40.278Z,6.80
2019-03-25T07:11:08.462Z,6.80
2019-03-25T07:13:36.460Z,6.90
2019-03-25T07:16:04.431Z,7.00
2019-03-25T07:18:32.400Z,7.00
2019-03-25T07:21:00.425Z,7.00
2019-03-25T07:23:28.503Z,7.00
2019-03-25T07:25:56.581Z,7.10
2019-03-25T07:28:24.699Z,7.20
2019-03-25T07:30:52.657Z,7.30
2019-03-25T07:33:20.745Z,7.40
2019-03-25T07:35:48.640Z,7.40
2019-03-25T07:38:16.638Z,7.50
2019-03-25T07:40:44.602Z,7.50
2019-03-25T07:43:12.716Z,7.40
2019-03-25T07:45:40.702Z,7.40
2019-03-25T07:48:08.677Z,7.40
2019-03-25T07:50:36.661Z,7.50
2019-03-25T07:53:04.809Z,7.50
2019-03-25T07:55:32.888Z,7.50
2019-03-25T07:58:00.885Z,7.60
2019-03-25T08:00:28.864Z,7.70
2019-03-25T08:02:56.809Z,7.80
2019-03-25T08:05:24.802Z,7.80
2019-03-25T08:07:52.846Z,7.90
2019-03-25T08:10:31.226Z,8.00
2019-03-25T08:12:59.265Z,8.10
2019-03-25T08:15:27.327Z,8.10
2019-03-25T08:17:55.403Z,8.10
2019-03-25T08:20:23.382Z,8.10
2019-03-25T08:22:51.371Z,8.10
2019-03-25T08:25:19.364Z,8.20
2019-03-25T08:27:59.123Z,8.40
2019-03-25T08:30:17.744Z,8.50
2019-03-25T08:32:45.768Z,8.70
2019-03-25T08:35:13.737Z,8.80
2019-03-25T08:37:41.828Z,8.90
2019-03-25T08:40:09.933Z,8.80
2019-03-25T08:42:37.897Z,8.80
2019-03-25T08:45:06.536Z,8.70
2019-03-25T08:47:34.533Z,8.70
2019-03-25T08:50:02.524Z,8.60
2019-03-25T08:52:30.484Z,8.70
2019-03-25T08:54:58.507Z,8.70
2019-03-25T08:57:26.583Z,8.70
2019-03-25T08:59:56.506Z,8.50
2019-03-25T09:02:24.510Z,8.20
2019-03-25T09:04:52.562Z,7.90
2019-03-25T09:07:20.534Z,7.60
2019-03-25T09:09:48.540Z,7.50
2019-03-25T09:12:16.684Z,7.30
2019-03-25T09:14:44.800Z,7.10
2019-03-25T09:17:12.784Z,7.20
2019-03-25T09:19:40.769Z,7.20
2019-03-25T09:22:09.077Z,7.10
2019-03-25T09:24:37.060Z,7.20
2019-03-25T09:27:05.033Z,7.30
2019-03-25T09:29:33.132Z,7.40
2019-03-25T09:32:01.906Z,7.50
2019-03-25T09:34:29.884Z,7.70
2019-03-25T09:36:58.289Z,7.80
2019-03-25T09:39:26.275Z,8.00
2019-03-25T09:41:54.511Z,8.20
2019-03-25T09:44:23.214Z,8.40
2019-03-25T09:46:51.297Z,8.60
2019-03-25T09:49:19.297Z,8.70
2019-03-25T09:51:47.285Z,8.70
2019-03-25T09:54:15.241Z,8.80
2019-03-25T09:56:43.217Z,8.90
2019-03-25T09:59:11.215Z,9.10
2019-03-25T10:01:39.186Z,9.20
2019-03-25T10:04:07.355Z,9.30
2019-03-25T10:06:35.472Z,9.30
2019-03-25T10:09:08.181Z,9.30
2019-03-25T10:11:36.142Z,9.30
2019-03-25T10:14:04.248Z,9.20
2019-03-25T10:16:32.217Z,9.30
2019-03-25T10:19:00.188Z,9.40
2019-03-25T10:21:28.190Z,9.70
2019-03-25T10:23:56.261Z,9.90
2019-03-25T10:26:24.241Z,10.00
2019-03-25T10:28:52.241Z,10.00
2019-03-25T10:31:20.364Z,9.70
2019-03-25T10:33:48.428Z,9.60
2019-03-25T10:36:16.422Z,9.60
2019-03-25T10:38:44.391Z,9.60
2019-03-25T10:41:12.476Z,9.80
2019-03-25T10:43:40.519Z,9.90
2019-03-25T10:46:08.501Z,9.90
2019-03-25T10:48:36.493Z,9.80
2019-03-25T10:51:04.588Z,9.80
2019-03-25T10:53:32.556Z,9.80
2019-03-25T10:56:00.568Z,9.90
2019-03-25T10:58:28.525Z,10.10
2019-03-25T11:00:56.611Z,10.30
2019-03-25T11:03:24.619Z,10.40
2019-03-25T11:05:52.630Z,10.20
2019-03-25T11:08:20.703Z,9.80
2019-03-25T11:10:48.740Z,9.60
2019-03-25T11:13:16.823Z,9.30
2019-03-25T11:15:44.813Z,9.20
2019-03-25T11:18:12.908Z,9.40
2019-03-25T11:20:40.879Z,9.50
2019-03-25T11:23:08.869Z,9.20
2019-03-25T11:25:36.888Z,8.70
2019-03-25T11:28:22.493Z,8.20
2019-03-25T11:31:00.169Z,7.90
2019-03-25T11:33:28.340Z,7.80
2019-03-25T11:35:56.427Z,7.80
2019-03-25T11:38:24.649Z,8.00
2019-03-25T11:40:52.676Z,8.20
2019-03-25T11:43:20.714Z,8.50
2019-03-25T11:45:48.868Z,8.70
2019-03-25T11:48:17.124Z,8.90
2019-03-25T11:50:45.813Z,9.10
2019-03-25T11:53:13.800Z,9.30
2019-03-25T11:55:41.868Z,9.50
2019-03-25T11:58:09.951Z,9.60
2019-03-25T12:00:37.932Z,9.70
2019-03-25T12:03:05.945Z,9.80
2019-03-25T12:05:33.922Z,9.90
2019-03-25T12:08:01.916Z,9.90
2019-03-25T12:10:29.906Z,9.80
2019-03-25T12:12:57.878Z,9.70
2019-03-25T12:15:25.841Z,9.70
2019-03-25T12:17:53.939Z,9.60
2019-03-25T12:20:21.904Z,9.70
2019-03-25T12:22:49.917Z,9.60
2019-03-25T12:25:17.925Z,9.70
2019-03-25T12:27:45.892Z,9.80
2019-03-25T12:30:13.964Z,9.80
2019-03-25T12:32:41.866Z,9.80
2019-03-25T12:35:09.856Z,9.70
2019-03-25T12:37:37.831Z,9.80
2019-03-25T12:40:07.884Z,10.00
2019-03-25T12:42:35.669Z,10.20
2019-03-25T12:45:03.694Z,10.20
2019-03-25T12:47:31.705Z,10.00
2019-03-25T12:49:59.761Z,9.60
2019-03-25T12:52:27.740Z,9.20
2019-03-25T12:54:55.939Z,9.10
2019-03-25T12:57:24.012Z,9.10
2019-03-25T12:59:52.033Z,9.20
2019-03-25T13:02:19.999Z,9.30
2019-03-25T13:04:48.036Z,9.50
2019-03-25T13:07:16.032Z,9.70
2019-03-25T13:09:44.009Z,9.90
2019-03-25T13:12:11.987Z,10.10
2019-03-25T13:14:39.992Z,10.10
2019-03-25T13:17:07.955Z,10.00
2019-03-25T13:19:36.036Z,9.90
2019-03-25T13:22:04.116Z,9.90
2019-03-25T13:24:32.083Z,10.00
2019-03-25T13:27:00.133Z,10.10
2019-03-25T13:29:28.084Z,10.10
2019-03-25T13:31:56.147Z,10.10
2019-03-25T13:34:24.141Z,10.10
2019-03-25T13:36:52.112Z,10.20
2019-03-25T13:39:20.223Z,10.20
2019-03-25T13:41:48.196Z,10.30
2019-03-25T13:44:16.173Z,10.30
2019-03-25T13:46:44.073Z,10.30
2019-03-25T13:49:12.136Z,10.30
2019-03-25T13:51:40.107Z,10.30
2019-03-25T13:54:08.188Z,10.30
2019-03-25T13:56:36.249Z,10.30
2019-03-25T13:59:04.336Z,10.30
2019-03-25T14:01:32.373Z,10.20
2019-03-25T14:04:00.296Z,10.00
2019-03-25T14:06:28.296Z,9.80
2019-03-25T14:08:56.287Z,9.60
2019-03-25T14:11:24.271Z,9.30
2019-03-25T14:13:52.256Z,9.00
2019-03-25T14:16:20.297Z,8.80
2019-03-25T14:18:48.292Z,8.70
2019-03-25T14:21:16.400Z,8.70
2019-03-25T14:23:44.396Z,8.80
2019-03-25T14:26:12.364Z,8.90
2019-03-25T14:28:40.352Z,9.30
2019-03-25T14:31:08.345Z,9.50
2019-03-25T14:33:36.362Z,9.70
2019-03-25T14:36:04.338Z,9.70
2019-03-25T14:38:32.333Z,9.70
2019-03-25T14:41:00.305Z,9.80
2019-03-25T14:43:28.387Z,9.80
2019-03-25T14:45:56.400Z,9.90
2019-03-25T14:48:24.376Z,10.00
2019-03-25T14:50:52.360Z,10.00
2019-03-25T14:53:20.373Z,10.10
2019-03-25T14:55:48.428Z,10.10
2019-03-25T14:58:16.566Z,10.10
2019-03-25T15:00:44.504Z,10.10
2019-03-25T15:03:12.528Z,10.00
2019-03-25T15:05:40.546Z,10.00
2019-03-25T15:08:08.553Z,10.00
2019-03-25T15:10:36.624Z,10.00
2019-03-25T15:13:04.722Z,10.00
2019-03-25T15:15:32.811Z,10.00
2019-03-25T15:18:00.870Z,9.90
2019-03-25T15:20:28.857Z,9.90
2019-03-25T15:22:56.839Z,9.80
2019-03-25T15:25:24.998Z,9.80
2019-03-25T15:27:52.980Z,9.80
2019-03-25T15:30:20.950Z,9.80
2019-03-25T15:32:48.956Z,9.90
2019-03-25T15:35:16.936Z,9.90
2019-03-25T15:37:45.024Z,9.90
2019-03-25T15:40:13.362Z,9.80
2019-03-25T15:42:41.222Z,9.70
2019-03-25T15:45:09.447Z,9.60
2019-03-25T15:47:37.671Z,9.60
2019-03-25T15:50:06.668Z,9.50
2019-03-25T15:52:34.657Z,9.60
2019-03-25T15:55:02.636Z,9.60
2019-03-25T15:57:30.836Z,9.50
2019-03-25T15:59:59.071Z,9.60
2019-03-25T16:02:27.040Z,9.50
2019-03-25T16:04:55.129Z,9.60
2019-03-25T16:07:23.113Z,9.70
2019-03-25T16:09:51.180Z,9.70
2019-03-25T16:12:19.236Z,9.70
2019-03-25T16:14:47.475Z,9.60
2019-03-25T16:17:15.455Z,9.50
2019-03-25T16:19:43.449Z,9.60
2019-03-25T16:22:11.540Z,9.50
2019-03-25T16:24:39.624Z,9.50
2019-03-25T16:27:07.597Z,9.50
2019-03-25T16:29:35.573Z,9.50
2019-03-25T16:32:03.564Z,9.50
2019-03-25T16:34:31.547Z,9.50
2019-03-25T16:36:59.549Z,9.50
2019-03-25T16:39:27.796Z,9.40
2019-03-25T16:41:55.796Z,9.40
2019-03-25T16:44:23.946Z,9.30
2019-03-25T16:46:51.916Z,9.40
2019-03-25T16:49:19.950Z,9.40
2019-03-25T16:51:47.946Z,9.40
2019-03-25T16:54:15.738Z,9.50
2019-03-25T16:56:43.728Z,9.50
2019-03-25T16:59:11.711Z,9.50
2019-03-25T17:01:39.660Z,9.50
2019-03-25T17:04:07.607Z,9.50
2019-03-25T17:06:35.591Z,9.50
2019-03-25T17:09:04.980Z,9.40
2019-03-25T17:11:32.851Z,9.40
2019-03-25T17:14:00.815Z,9.50
2019-03-25T17:16:28.761Z,9.40
2019-03-25T17:18:56.627Z,9.30
2019-03-25T17:21:24.617Z,9.30
2019-03-25T17:23:52.715Z,9.20
2019-03-25T17:26:20.764Z,9.30
2019-03-25T17:28:48.744Z,9.20
2019-03-25T17:31:20.998Z,9.20
2019-03-25T17:33:46.249Z,9.20
2019-03-25T17:36:14.076Z,9.20
2019-03-25T17:38:42.017Z,9.10
2019-03-25T17:41:09.973Z,9.10
2019-03-25T17:43:37.947Z,9.10
2019-03-25T17:46:05.957Z,9.00
2019-03-25T17:48:34.132Z,9.00
2019-03-25T17:51:02.285Z,9.00
2019-03-25T17:53:30.288Z,9.10
2019-03-25T17:55:58.355Z,9.10
2019-03-25T17:58:26.361Z,9.10
2019-03-25T18:01:16.255Z,9.10
2019-03-25T18:03:44.404Z,9.10
2019-03-25T18:06:12.404Z,9.10
2019-03-25T18:08:40.384Z,9.00
2019-03-25T18:11:08.421Z,9.10
2019-03-25T18:13:36.455Z,9.00
2019-03-25T18:16:04.472Z,9.00
2019-03-25T18:18:32.643Z,9.00
2019-03-25T18:21:00.630Z,9.00
2019-03-25T18:23:28.616Z,9.00
2019-03-25T18:25:56.632Z,9.00
2019-03-25T18:28:24.624Z,9.00
2019-03-25T18:30:52.741Z,9.00
2019-03-25T18:33:20.998Z,9.00
2019-03-25T18:35:49.045Z,9.00
2019-03-25T18:38:17.015Z,9.00
2019-03-25T18:40:45.007Z,9.00
2019-03-25T18:43:12.957Z,8.90
2019-03-25T18:45:41.135Z,8.90
2019-03-25T18:48:09.132Z,8.90
2019-03-25T18:50:37.233Z,8.90
2019-03-25T18:53:05.350Z,8.90
2019-03-25T18:55:33.548Z,8.90
2019-03-25T18:58:01.573Z,8.90
2019-03-25T19:00:30.872Z,8.90
2019-03-25T19:02:58.853Z,8.90
2019-03-25T19:05:26.908Z,8.90
2019-03-25T19:07:55.198Z,8.90
2019-03-25T19:10:26.731Z,8.80
2019-03-25T19:12:54.864Z,8.90
2019-03-25T19:15:22.825Z,8.90
2019-03-25T19:17:50.801Z,8.90
2019-03-25T19:20:18.948Z,8.90
2019-03-25T19:22:46.943Z,8.90
2019-03-25T19:25:14.991Z,8.90
2019-03-25T19:27:42.971Z,8.90
2019-03-25T19:30:12.976Z,8.90
2019-03-25T19:32:40.899Z,8.80
2019-03-25T19:35:09.157Z,8.80
2019-03-25T19:37:37.136Z,8.80
2019-03-25T19:40:05.771Z,8.80
2019-03-25T19:42:33.738Z,8.80
2019-03-25T19:45:01.753Z,8.80
2019-03-25T19:47:29.678Z,8.80
2019-03-25T19:49:57.659Z,8.80
2019-03-25T19:52:25.763Z,8.80
2019-03-25T19:54:53.711Z,8.80
2019-03-25T19:57:21.699Z,8.80
2019-03-25T19:59:49.783Z,8.80
2019-03-25T20:02:19.347Z,8.80
2019-03-25T20:04:47.802Z,8.80
2019-03-25T20:07:15.792Z,8.80
2019-03-25T20:09:43.762Z,8.70
2019-03-25T20:12:11.908Z,8.70
2019-03-25T20:14:39.861Z,8.70
2019-03-25T20:17:07.841Z,8.70
2019-03-25T20:19:35.861Z,8.70
2019-03-25T20:22:03.986Z,8.70
2019-03-25T20:24:32.002Z,8.70
2019-03-25T20:27:00.288Z,8.70
2019-03-25T20:29:28.532Z,8.70
2019-03-25T20:31:56.488Z,8.70
2019-03-25T20:34:24.419Z,8.70
2019-03-25T20:36:52.547Z,8.60
2019-03-25T20:39:20.543Z,8.60
2019-03-25T20:41:48.680Z,8.60
2019-03-25T20:44:16.689Z,8.60
2019-03-25T20:46:44.799Z,8.60
2019-03-25T20:49:12.716Z,8.60
2019-03-25T20:51:40.677Z,8.60
2019-03-25T20:54:08.675Z,8.60
2019-03-25T20:56:36.616Z,8.70
2019-03-25T20:59:04.632Z,8.60
2019-03-25T21:01:32.656Z,8.60
2019-03-25T21:04:00.623Z,8.60
2019-03-25T21:06:28.667Z,8.50
2019-03-25T21:08:56.845Z,8.60
2019-03-25T21:11:24.814Z,8.60
2019-03-25T21:13:52.797Z,8.50
2019-03-25T21:16:20.813Z,8.50
2019-03-25T21:18:48.839Z,8.50
2019-03-25T21:21:16.808Z,8.50
2019-03-25T21:23:46.078Z,8.50
2019-03-25T21:26:14.155Z,8.50
2019-03-25T21:28:42.145Z,8.50
2019-03-25T21:31:10.194Z,8.40
2019-03-25T21:33:38.401Z,8.50
2019-03-25T21:36:06.499Z,8.50
2019-03-25T21:38:34.614Z,8.50
2019-03-25T21:41:02.929Z,8.50
2019-03-25T21:43:30.986Z,8.50
2019-03-25T21:45:59.837Z,8.50
2019-03-25T21:48:27.894Z,8.50
2019-03-25T21:50:55.928Z,8.50
2019-03-25T21:53:24.064Z,8.50
2019-03-25T21:55:52.093Z,8.50
2019-03-25T21:58:20.070Z,8.50
2019-03-25T22:00:48.337Z,8.50
2019-03-25T22:03:16.421Z,8.40
2019-03-25T22:05:44.481Z,8.40
2019-03-25T22:08:12.565Z,8.40
2019-03-25T22:10:42.984Z,8.30
2019-03-25T22:13:10.370Z,8.20
2019-03-25T22:15:38.259Z,8.20
2019-03-25T22:18:06.386Z,8.10
2019-03-25T22:20:34.357Z,8.00
2019-03-25T22:23:02.324Z,8.10
2019-03-25T22:25:30.191Z,8.00
2019-03-25T22:27:58.263Z,8.00
2019-03-25T22:30:26.370Z,8.10
2019-03-25T22:32:54.349Z,8.00
2019-03-25T22:35:22.428Z,8.10
2019-03-25T22:37:50.397Z,8.10
2019-03-25T22:40:18.529Z,8.10
2019-03-25T22:42:46.512Z,8.10
2019-03-25T22:45:18.523Z,8.00
2019-03-25T22:47:46.507Z,8.10
2019-03-25T22:50:31.636Z,8.10
2019-03-25T22:52:59.817Z,8.10
2019-03-25T22:55:27.877Z,8.10
2019-03-25T22:57:55.891Z,8.10
2019-03-25T23:00:26.127Z,8.00
2019-03-25T23:02:54.132Z,8.00
2019-03-25T23:05:22.121Z,8.00
2019-03-25T23:07:50.184Z,8.00
2019-03-25T23:10:18.317Z,7.90
2019-03-25T23:12:46.310Z,8.00
2019-03-25T23:15:14.264Z,8.00
2019-03-25T23:17:42.239Z,8.10
2019-03-25T23:20:10.214Z,8.00
2019-03-25T23:22:38.191Z,8.10
2019-03-25T23:25:06.196Z,8.10
2019-03-25T23:27:34.273Z,8.10
2019-03-25T23:30:02.345Z,8.10
2019-03-25T23:32:30.329Z,8.10
2019-03-25T23:34:58.296Z,8.20
2019-03-25T23:37:26.269Z,8.10
2019-03-25T23:39:54.254Z,8.20
2019-03-25T23:42:22.225Z,8.20
2019-03-25T23:44:50.278Z,8.20
2019-03-25T23:47:18.276Z,8.20
2019-03-25T23:49:46.265Z,8.20
2019-03-25T23:52:14.866Z,8.20
2019-03-25T23:54:42.929Z,8.20
2019-03-25T23:57:11.012Z,8.20
2019-03-25T23:59:39.108Z,8.20
